createdAt,value
2022-10-17T00:01:52.938Z,4.27
2022-10-17T00:03:55.928Z,4.73
2022-10-17T00:06:00.227Z,4.73
2022-10-17T00:08:03.167Z,4.50
2022-10-17T00:10:08.852Z,4.03
2022-10-17T00:12:11.947Z,3.90
2022-10-17T00:14:14.879Z,3.90
2022-10-17T00:16:24.542Z,4.43
2022-10-17T00:18:27.578Z,4.85
2022-10-17T00:20:32.677Z,4.70
2022-10-17T00:24:39.899Z,5.05
2022-10-17T00:26:42.968Z,4.75
2022-10-17T00:28:47.957Z,4.63
2022-10-17T00:30:57.346Z,5.25
2022-10-17T00:33:00.390Z,4.63
2022-10-17T00:35:03.322Z,4.87
2022-10-17T00:37:06.207Z,4.22
2022-10-17T00:39:10.612Z,4.80
2022-10-17T00:41:17.660Z,4.63
2022-10-17T00:43:21.121Z,4.55
2022-10-17T00:45:25.622Z,4.60
2022-10-17T00:47:29.310Z,4.40
2022-10-17T00:49:35.358Z,3.50
2022-10-17T00:51:41.866Z,3.95
2022-10-17T00:53:45.722Z,4.13
2022-10-17T00:55:52.802Z,3.90
2022-10-17T00:57:56.682Z,4.03
2022-10-17T01:00:02.877Z,3.53
2022-10-17T01:02:07.556Z,4.07
2022-10-17T01:04:11.353Z,3.55
2022-10-17T01:06:15.976Z,3.55
2022-10-17T01:08:19.005Z,4.30
2022-10-17T01:12:33.458Z,3.45
2022-10-17T01:14:42.398Z,3.20
2022-10-17T01:16:49.061Z,3.15
2022-10-17T01:19:01.063Z,3.20
2022-10-17T01:21:20.793Z,3.40
2022-10-17T01:23:32.244Z,3.58
2022-10-17T01:25:43.220Z,3.35
2022-10-17T01:27:57.473Z,3.55
2022-10-17T01:30:27.839Z,3.22
2022-10-17T01:32:37.140Z,3.58
2022-10-17T01:34:45.294Z,3.30
2022-10-17T01:36:52.213Z,3.13
2022-10-17T01:39:00.090Z,3.35
2022-10-17T01:41:04.916Z,3.67
2022-10-17T01:43:12.749Z,3.30
2022-10-17T01:45:19.476Z,3.33
2022-10-17T01:47:26.282Z,3.45
2022-10-17T01:49:33.150Z,3.33
2022-10-17T01:51:39.837Z,3.63
2022-10-17T01:53:47.305Z,3.10
2022-10-17T01:55:51.314Z,3.60
2022-10-17T01:57:56.737Z,2.88
2022-10-17T01:59:59.733Z,3.83
2022-10-17T02:02:03.252Z,2.63
2022-10-17T02:04:07.889Z,3.20
2022-10-17T02:06:12.119Z,3.28
2022-10-17T02:08:15.513Z,3.78
2022-10-17T02:10:23.298Z,3.33
2022-10-17T02:12:42.079Z,2.85
2022-10-17T02:14:56.814Z,2.85
2022-10-17T02:17:09.171Z,3.03
2022-10-17T02:19:33.422Z,3.30
2022-10-17T02:21:54.513Z,3.08
2022-10-17T02:24:01.614Z,3.03
2022-10-17T02:26:08.071Z,3.33
2022-10-17T02:28:20.391Z,3.30
2022-10-17T02:30:28.491Z,3.00
2022-10-17T02:32:36.446Z,3.03
2022-10-17T02:34:42.435Z,2.70
2022-10-17T02:36:48.954Z,2.97
2022-10-17T02:38:54.578Z,2.95
2022-10-17T02:40:57.558Z,3.47
2022-10-17T02:43:01.732Z,3.13
2022-10-17T02:45:06.731Z,2.90
2022-10-17T02:47:17.794Z,2.78
2022-10-17T02:49:24.753Z,2.97
2022-10-17T02:51:30.992Z,3.60
2022-10-17T02:53:39.829Z,3.03
2022-10-17T02:55:47.814Z,3.15
2022-10-17T02:57:52.652Z,2.95
2022-10-17T02:59:56.664Z,2.88
2022-10-17T03:01:59.723Z,2.97
2022-10-17T03:04:07.218Z,2.58
2022-10-17T03:06:10.178Z,2.75
2022-10-17T03:08:13.475Z,2.92
2022-10-17T03:10:16.639Z,2.72
2022-10-17T03:12:21.173Z,2.97
2022-10-17T03:14:25.103Z,2.97
2022-10-17T03:16:27.946Z,2.97
2022-10-17T03:18:31.612Z,2.30
2022-10-17T03:20:37.079Z,2.47
2022-10-17T03:22:39.960Z,3.55
2022-10-17T03:24:43.242Z,2.88
2022-10-17T03:28:53.655Z,2.70
2022-10-17T03:30:58.107Z,2.97
2022-10-17T03:33:01.465Z,2.30
2022-10-17T03:35:05.234Z,3.75
2022-10-17T03:37:08.375Z,2.75
2022-10-17T03:39:13.140Z,3.55
2022-10-17T03:41:16.302Z,2.70
2022-10-17T03:43:19.166Z,2.60
2022-10-17T03:45:23.764Z,2.60
2022-10-17T03:47:28.249Z,2.92
2022-10-17T03:49:32.130Z,3.50
2022-10-17T03:51:35.190Z,3.05
2022-10-17T03:53:42.762Z,2.97
2022-10-17T03:55:46.258Z,3.53
2022-10-17T03:57:49.154Z,2.97
2022-10-17T03:59:54.997Z,2.88
2022-10-17T04:01:59.716Z,4.15
2022-10-17T04:04:02.695Z,3.05
2022-10-17T04:06:09.144Z,2.95
2022-10-17T04:08:13.086Z,2.92
2022-10-17T04:10:36.230Z,3.05
2022-10-17T04:12:39.220Z,2.92
2022-10-17T04:14:42.523Z,3.42
2022-10-17T04:16:45.896Z,3.00
2022-10-17T04:18:56.290Z,2.85
2022-10-17T04:21:02.619Z,2.78
2022-10-17T04:23:06.860Z,2.95
2022-10-17T04:25:10.532Z,3.17
2022-10-17T04:27:16.446Z,3.10
2022-10-17T04:29:21.769Z,3.28
2022-10-17T04:31:27.053Z,3.22
2022-10-17T04:33:52.806Z,2.88
2022-10-17T04:35:59.268Z,3.35
2022-10-17T04:38:02.490Z,2.88
2022-10-17T04:40:06.223Z,3.65
2022-10-17T04:42:10.717Z,3.35
2022-10-17T04:44:14.222Z,2.90
2022-10-17T04:46:22.726Z,3.08
2022-10-17T04:48:25.829Z,3.17
2022-10-17T04:50:28.718Z,3.35
2022-10-17T04:52:59.108Z,3.13
2022-10-17T04:55:02.006Z,2.92
2022-10-17T04:57:05.111Z,3.78
2022-10-17T04:59:09.184Z,3.60
2022-10-17T05:01:15.885Z,2.88
2022-10-17T05:03:20.816Z,2.97
2022-10-17T05:05:23.882Z,2.85
2022-10-17T05:07:29.700Z,3.28
2022-10-17T05:09:44.988Z,2.85
2022-10-17T05:11:48.101Z,2.70
2022-10-17T05:13:52.671Z,2.50
2022-10-17T05:15:55.708Z,3.63
2022-10-17T05:17:58.898Z,2.65
2022-10-17T05:20:03.984Z,3.30
2022-10-17T05:22:10.358Z,3.00
2022-10-17T05:24:15.443Z,2.67
2022-10-17T05:26:20.260Z,2.75
2022-10-17T05:28:23.242Z,2.75
2022-10-17T05:30:27.871Z,3.03
2022-10-17T05:32:35.393Z,2.67
2022-10-17T05:34:38.543Z,2.53
2022-10-17T05:36:41.818Z,3.30
2022-10-17T05:38:45.906Z,3.00
2022-10-17T05:40:48.833Z,3.42
2022-10-17T05:42:53.380Z,3.05
2022-10-17T05:44:58.512Z,2.78
2022-10-17T05:47:02.553Z,3.55
2022-10-17T05:49:14.778Z,2.75
2022-10-17T05:51:28.740Z,3.20
2022-10-17T05:53:33.807Z,2.67
2022-10-17T05:55:41.196Z,3.88
2022-10-17T05:57:44.222Z,3.10
2022-10-17T05:59:52.668Z,2.47
2022-10-17T06:01:57.023Z,2.80
2022-10-17T06:04:00.156Z,3.40
2022-10-17T06:06:06.921Z,2.88
2022-10-17T06:08:10.697Z,2.70
2022-10-17T06:10:16.381Z,2.75
2022-10-17T06:12:19.495Z,2.90
2022-10-17T06:14:22.957Z,2.85
2022-10-17T06:16:30.886Z,2.60
2022-10-17T06:18:36.388Z,2.92
2022-10-17T06:20:43.848Z,2.47
2022-10-17T06:22:49.914Z,2.85
2022-10-17T06:25:02.539Z,3.40
2022-10-17T06:27:10.833Z,3.08
2022-10-17T06:29:16.225Z,3.53
2022-10-17T06:31:23.298Z,3.22
2022-10-17T06:33:28.493Z,2.80
2022-10-17T06:35:31.777Z,2.25
2022-10-17T06:37:36.630Z,2.17
2022-10-17T06:39:43.833Z,3.17
2022-10-17T06:41:49.415Z,2.55
2022-10-17T06:43:55.145Z,2.92
2022-10-17T06:46:18.025Z,3.10
2022-10-17T06:48:32.648Z,2.78
2022-10-17T06:50:50.561Z,2.70
2022-10-17T06:52:57.267Z,3.00
2022-10-17T06:55:22.582Z,2.80
2022-10-17T06:57:49.191Z,2.90
2022-10-17T07:00:13.935Z,3.13
2022-10-17T07:02:23.662Z,3.30
2022-10-17T07:04:28.856Z,3.95
2022-10-17T07:06:32.465Z,2.65
2022-10-17T07:08:44.533Z,2.53
2022-10-17T07:10:48.295Z,2.60
2022-10-17T07:12:51.212Z,2.30
2022-10-17T07:14:54.409Z,2.53
2022-10-17T07:16:57.457Z,2.67
2022-10-17T07:19:01.091Z,2.55
2022-10-17T07:21:11.077Z,2.50
2022-10-17T07:23:15.694Z,2.90
2022-10-17T07:25:19.122Z,2.53
2022-10-17T07:27:28.796Z,2.65
2022-10-17T07:29:31.933Z,3.15
2022-10-17T07:31:45.524Z,2.40
2022-10-17T07:33:48.809Z,2.90
2022-10-17T07:35:52.851Z,2.35
2022-10-17T07:37:57.336Z,2.90
2022-10-17T07:40:00.374Z,2.50
2022-10-17T07:42:03.316Z,2.72
2022-10-17T07:44:06.483Z,2.80
2022-10-17T07:46:18.244Z,2.80
2022-10-17T07:48:22.434Z,2.50
2022-10-17T07:50:25.579Z,2.80
2022-10-17T07:52:28.677Z,2.83
2022-10-17T07:54:33.272Z,2.88
2022-10-17T07:56:36.360Z,2.92
2022-10-17T07:58:39.912Z,2.13
2022-10-17T08:00:43.192Z,2.83
2022-10-17T08:02:46.375Z,2.65
2022-10-17T08:04:49.377Z,2.85
2022-10-17T08:06:56.452Z,2.72
2022-10-17T08:09:03.782Z,2.75
2022-10-17T08:11:10.053Z,3.15
2022-10-17T08:13:12.972Z,2.45
2022-10-17T08:15:16.033Z,3.00
2022-10-17T08:17:18.929Z,2.75
2022-10-17T08:19:21.839Z,2.55
2022-10-17T08:21:25.503Z,3.10
2022-10-17T08:23:28.772Z,2.47
2022-10-17T08:25:31.989Z,3.33
2022-10-17T08:27:36.499Z,2.78
2022-10-17T08:29:39.486Z,2.88
2022-10-17T08:31:46.476Z,2.50
2022-10-17T08:33:51.531Z,2.40
2022-10-17T08:35:54.586Z,2.55
2022-10-17T08:38:01.494Z,2.50
2022-10-17T08:40:05.232Z,2.95
2022-10-17T08:42:27.880Z,2.28
2022-10-17T08:44:43.091Z,2.58
2022-10-17T08:46:48.405Z,3.05
2022-10-17T08:48:52.866Z,2.08
2022-10-17T08:50:59.448Z,2.55
2022-10-17T08:53:05.442Z,2.67
2022-10-17T08:55:16.418Z,2.67
2022-10-17T08:57:19.470Z,2.83
2022-10-17T08:59:25.828Z,2.13
2022-10-17T09:01:34.635Z,2.65
2022-10-17T09:03:48.682Z,2.80
2022-10-17T09:05:55.232Z,2.60
2022-10-17T09:08:04.483Z,2.55
2022-10-17T09:10:15.503Z,2.17
2022-10-17T09:12:22.220Z,2.00
2022-10-17T09:14:37.088Z,3.17
2022-10-17T09:16:56.147Z,2.50
2022-10-17T09:19:03.629Z,2.35
2022-10-17T09:21:15.505Z,2.55
2022-10-17T09:23:21.037Z,2.67
2022-10-17T09:25:24.101Z,2.00
2022-10-17T09:27:31.841Z,2.30
2022-10-17T09:29:38.969Z,2.20
2022-10-17T09:31:49.389Z,2.72
2022-10-17T09:33:54.895Z,2.85
2022-10-17T09:35:59.729Z,2.45
2022-10-17T09:38:02.670Z,2.20
2022-10-17T09:40:08.588Z,2.03
2022-10-17T09:42:14.409Z,3.25
2022-10-17T09:44:20.227Z,2.95
2022-10-17T09:46:27.150Z,2.97
2022-10-17T09:48:34.740Z,2.88
2022-10-17T09:50:37.972Z,2.40
2022-10-17T09:52:42.235Z,2.47
2022-10-17T09:54:47.086Z,2.03
2022-10-17T09:57:01.851Z,2.40
2022-10-17T09:59:04.714Z,1.90
2022-10-17T10:01:21.126Z,2.67
2022-10-17T10:03:27.608Z,2.28
2022-10-17T10:05:32.643Z,2.33
2022-10-17T10:07:37.668Z,2.92
2022-10-17T10:09:41.260Z,2.13
2022-10-17T10:11:49.829Z,2.35
2022-10-17T10:13:53.072Z,2.40
2022-10-17T10:16:14.820Z,3.00
2022-10-17T10:18:32.953Z,2.17
2022-10-17T10:20:38.915Z,2.50
2022-10-17T10:22:41.816Z,2.15
2022-10-17T10:24:44.918Z,2.30
2022-10-17T10:26:51.536Z,2.63
2022-10-17T10:28:58.292Z,2.70
2022-10-17T10:31:04.804Z,4.25
2022-10-17T10:33:12.628Z,2.70
2022-10-17T10:35:22.615Z,2.63
2022-10-17T10:37:30.285Z,2.65
2022-10-17T10:39:42.856Z,2.97
2022-10-17T10:41:49.275Z,2.40
2022-10-17T10:43:53.028Z,2.70
2022-10-17T10:45:56.008Z,2.47
2022-10-17T10:47:59.590Z,2.35
2022-10-17T10:50:25.054Z,2.72
2022-10-17T10:52:36.686Z,2.67
2022-10-17T10:54:42.680Z,2.85
2022-10-17T10:56:51.119Z,2.50
2022-10-17T10:58:58.294Z,2.45
2022-10-17T11:01:13.508Z,3.25
2022-10-17T11:03:20.170Z,2.50
2022-10-17T11:05:38.326Z,2.75
2022-10-17T11:07:45.099Z,2.17
2022-10-17T11:09:56.788Z,2.10
2022-10-17T11:12:03.035Z,2.58
2022-10-17T11:14:13.061Z,2.22
2022-10-17T11:16:33.775Z,2.42
2022-10-17T11:18:43.432Z,2.50
2022-10-17T11:20:53.223Z,2.47
2022-10-17T11:23:01.785Z,2.88
2022-10-17T11:25:07.677Z,2.30
2022-10-17T11:27:12.511Z,3.03
2022-10-17T11:29:15.430Z,2.20
2022-10-17T11:31:23.072Z,2.20
2022-10-17T11:33:30.034Z,3.15
2022-10-17T11:35:36.624Z,2.42
2022-10-17T11:37:45.022Z,2.88
2022-10-17T11:39:54.295Z,2.70
2022-10-17T11:42:03.449Z,2.35
2022-10-17T11:44:14.643Z,3.22
2022-10-17T11:46:22.159Z,2.97
2022-10-17T11:48:30.309Z,2.58
2022-10-17T11:53:02.126Z,2.20
2022-10-17T11:55:12.323Z,2.72
2022-10-17T11:57:27.115Z,2.95
2022-10-17T11:59:57.715Z,2.30
2022-10-17T12:02:04.905Z,3.20
2022-10-17T12:04:20.704Z,3.33
2022-10-17T12:06:34.134Z,2.67
2022-10-17T12:08:44.098Z,2.20
2022-10-17T12:10:53.335Z,2.80
2022-10-17T12:12:56.312Z,2.60
2022-10-17T12:15:29.685Z,3.42
2022-10-17T12:17:36.846Z,2.80
2022-10-17T12:19:39.836Z,2.65
2022-10-17T12:21:56.264Z,2.88
2022-10-17T12:23:59.516Z,2.70
2022-10-17T12:26:27.328Z,2.67
2022-10-17T12:28:31.667Z,2.35
2022-10-17T12:30:35.295Z,2.97
2022-10-17T12:33:00.314Z,2.80
2022-10-17T12:35:01.640Z,2.70
2022-10-17T12:37:04.892Z,2.55
2022-10-17T12:39:51.037Z,2.50
2022-10-17T12:41:55.596Z,4.07
2022-10-17T12:43:58.814Z,2.40
2022-10-17T12:46:02.618Z,2.85
2022-10-17T12:48:07.611Z,2.90
2022-10-17T12:50:48.641Z,2.63
2022-10-17T12:53:00.150Z,3.00
2022-10-17T12:55:14.644Z,2.70
2022-10-17T12:57:23.144Z,2.75
2022-10-17T12:59:27.282Z,3.15
2022-10-17T13:01:32.938Z,2.50
2022-10-17T13:03:43.177Z,3.55
2022-10-17T13:05:49.152Z,2.95
2022-10-17T13:07:53.470Z,3.50
2022-10-17T13:09:56.623Z,3.03
2022-10-17T13:12:01.966Z,2.33
2022-10-17T13:14:15.663Z,2.38
2022-10-17T13:16:36.760Z,2.80
2022-10-17T13:18:39.712Z,2.70
2022-10-17T13:20:42.826Z,2.58
2022-10-17T13:22:46.661Z,2.53
2022-10-17T13:24:51.124Z,3.13
2022-10-17T13:26:54.234Z,2.20
2022-10-17T13:29:04.542Z,2.67
2022-10-17T13:31:15.064Z,3.47
2022-10-17T13:33:38.971Z,3.05
2022-10-17T13:35:59.445Z,2.80
2022-10-17T13:38:04.398Z,3.20
2022-10-17T13:40:30.833Z,2.45
2022-10-17T13:42:39.062Z,3.15
2022-10-17T13:44:43.527Z,2.60
2022-10-17T13:46:48.237Z,2.53
2022-10-17T13:48:51.757Z,2.53
2022-10-17T13:51:00.355Z,2.33
2022-10-17T13:53:26.406Z,2.28
2022-10-17T13:55:29.542Z,3.05
2022-10-17T13:57:32.960Z,3.58
2022-10-17T13:59:40.712Z,3.42
2022-10-17T14:01:43.835Z,2.75
2022-10-17T14:04:02.163Z,2.70
2022-10-17T14:06:19.233Z,2.70
2022-10-17T14:08:23.779Z,2.92
2022-10-17T14:10:28.835Z,2.67
2022-10-17T14:12:35.089Z,2.47
2022-10-17T14:15:05.131Z,3.10
2022-10-17T14:17:02.248Z,2.85
2022-10-17T14:19:07.950Z,2.80
2022-10-17T14:23:37.828Z,2.80
2022-10-17T14:25:41.828Z,3.30
2022-10-17T14:27:57.555Z,2.85
2022-10-17T14:30:03.930Z,2.38
2022-10-17T14:32:10.029Z,3.25
2022-10-17T14:34:25.445Z,2.72
2022-10-17T14:36:33.969Z,2.15
2022-10-17T14:38:37.015Z,3.30
2022-10-17T14:40:51.380Z,3.25
2022-10-17T14:42:55.527Z,3.20
2022-10-17T14:45:04.334Z,2.92
2022-10-17T14:47:41.750Z,3.03
2022-10-17T14:49:38.672Z,2.58
2022-10-17T14:51:56.552Z,3.20
2022-10-17T14:54:15.230Z,3.17
2022-10-17T14:56:25.827Z,2.90
2022-10-17T14:58:30.847Z,2.90
2022-10-17T15:00:34.081Z,3.00
2022-10-17T15:02:37.041Z,2.88
2022-10-17T15:04:41.894Z,2.35
2022-10-17T15:06:45.904Z,3.65
2022-10-17T15:08:48.903Z,3.20
2022-10-17T15:10:52.752Z,2.92
2022-10-17T15:12:59.183Z,3.65
2022-10-17T15:15:13.021Z,2.88
2022-10-17T15:17:20.707Z,3.10
2022-10-17T15:19:28.767Z,3.08
2022-10-17T15:21:39.607Z,3.58
2022-10-17T15:23:46.313Z,3.05
2022-10-17T15:25:49.309Z,3.63
2022-10-17T15:27:54.267Z,3.33
2022-10-17T15:29:58.151Z,2.50
2022-10-17T15:32:01.055Z,3.90
2022-10-17T15:34:04.202Z,3.05
2022-10-17T15:36:16.273Z,2.60
2022-10-17T15:38:20.971Z,2.95
2022-10-17T15:40:29.304Z,2.90
2022-10-17T15:42:32.730Z,3.03
2022-10-17T15:44:36.595Z,3.22
2022-10-17T15:46:43.194Z,3.60
2022-10-17T15:48:46.284Z,3.13
2022-10-17T15:50:49.196Z,3.10
2022-10-17T15:52:52.454Z,3.28
2022-10-17T15:54:59.534Z,3.80
2022-10-17T15:57:05.413Z,3.88
2022-10-17T15:59:14.601Z,3.58
2022-10-17T16:01:22.814Z,3.47
2022-10-17T16:03:25.781Z,3.88
2022-10-17T16:05:29.774Z,4.20
2022-10-17T16:07:32.979Z,4.05
2022-10-17T16:09:37.257Z,3.83
2022-10-17T16:11:42.937Z,3.38
2022-10-17T16:13:54.145Z,3.47
2022-10-17T16:15:57.155Z,3.63
2022-10-17T16:18:02.783Z,3.13
2022-10-17T16:20:09.480Z,3.33
2022-10-17T16:22:42.165Z,3.95
2022-10-17T16:24:45.074Z,3.83
2022-10-17T16:26:49.428Z,4.18
2022-10-17T16:28:52.384Z,3.80
2022-10-17T16:30:56.116Z,4.05
2022-10-17T16:32:59.056Z,4.50
2022-10-17T16:35:01.955Z,4.03
2022-10-17T16:37:12.733Z,4.60
2022-10-17T16:39:15.741Z,3.95
2022-10-17T16:41:23.030Z,4.40
2022-10-17T16:43:27.346Z,4.55
2022-10-17T16:45:30.367Z,5.70
2022-10-17T16:47:33.292Z,5.40
2022-10-17T16:49:39.197Z,5.05
2022-10-17T16:51:44.594Z,3.95
2022-10-17T16:53:50.140Z,4.68
2022-10-17T16:56:00.821Z,4.72
2022-10-17T16:58:03.735Z,5.10
2022-10-17T17:00:11.862Z,4.45
2022-10-17T17:02:17.605Z,6.07
2022-10-17T17:04:23.731Z,5.35
2022-10-17T17:06:29.502Z,4.97
2022-10-17T17:08:32.512Z,5.88
2022-10-17T17:10:35.441Z,6.75
2022-10-17T17:12:38.735Z,6.05
2022-10-17T17:14:41.717Z,6.65
2022-10-17T17:16:46.057Z,6.35
2022-10-17T17:18:51.466Z,5.95
2022-10-17T17:20:59.343Z,5.82
2022-10-17T17:23:04.904Z,5.70
2022-10-17T17:25:08.295Z,5.57
2022-10-17T17:27:13.448Z,6.18
2022-10-17T17:29:16.853Z,6.13
2022-10-17T17:31:22.101Z,5.28
2022-10-17T17:33:26.858Z,7.13
2022-10-17T17:35:30.620Z,6.75
2022-10-17T17:37:33.641Z,6.68
2022-10-17T17:39:36.698Z,7.18
2022-10-17T17:41:40.566Z,6.40
2022-10-17T17:43:44.382Z,8.07
2022-10-17T17:45:47.548Z,7.10
2022-10-17T17:47:50.463Z,6.97
2022-10-17T17:49:54.691Z,7.25
2022-10-17T17:51:57.613Z,6.28
2022-10-17T17:54:00.544Z,6.90
2022-10-17T17:56:03.904Z,6.97
2022-10-17T17:58:08.222Z,6.15
2022-10-17T18:00:12.873Z,7.05
2022-10-17T18:02:15.885Z,6.18
2022-10-17T18:04:19.131Z,6.90
2022-10-17T18:06:24.223Z,6.15
2022-10-17T18:08:27.114Z,6.63
2022-10-17T18:10:30.368Z,6.90
2022-10-17T18:12:34.599Z,6.68
2022-10-17T18:14:37.516Z,6.75
2022-10-17T18:16:40.479Z,6.75
2022-10-17T18:18:44.459Z,7.13
2022-10-17T18:20:48.039Z,7.72
2022-10-17T18:22:52.364Z,7.28
2022-10-17T18:24:55.237Z,6.90
2022-10-17T18:26:59.814Z,5.97
2022-10-17T18:29:03.175Z,6.90
2022-10-17T18:31:07.720Z,7.63
2022-10-17T18:33:12.992Z,7.30
2022-10-17T18:35:15.981Z,7.07
2022-10-17T18:37:19.281Z,7.40
2022-10-17T18:39:24.018Z,7.25
2022-10-17T18:41:30.514Z,7.57
2022-10-17T18:43:34.956Z,7.63
2022-10-17T18:45:39.242Z,6.43
2022-10-17T18:47:44.729Z,7.85
2022-10-17T18:49:48.214Z,6.97
2022-10-17T18:51:52.065Z,7.72
2022-10-17T18:53:58.568Z,6.68
2022-10-17T18:56:03.349Z,7.00
2022-10-17T18:58:06.343Z,7.03
2022-10-17T19:00:10.830Z,8.48
2022-10-17T19:02:14.016Z,7.53
2022-10-17T19:04:17.052Z,6.53
2022-10-17T19:06:24.806Z,7.22
2022-10-17T19:08:27.703Z,8.38
2022-10-17T19:10:30.598Z,7.50
2022-10-17T19:12:34.946Z,6.18
2022-10-17T19:14:38.700Z,6.82
2022-10-17T19:16:46.370Z,5.85
2022-10-17T19:18:52.748Z,7.32
2022-10-17T19:20:55.692Z,7.30
2022-10-17T19:22:58.925Z,7.32
2022-10-17T19:25:01.884Z,7.18
2022-10-17T19:27:06.843Z,7.85
2022-10-17T19:29:11.556Z,8.55
2022-10-17T19:31:17.009Z,8.35
2022-10-17T19:33:21.253Z,6.65
2022-10-17T19:35:24.150Z,6.15
2022-10-17T19:37:27.188Z,5.00
2022-10-17T19:39:30.499Z,4.90
2022-10-17T19:41:33.843Z,6.78
2022-10-17T19:43:37.312Z,5.60
2022-10-17T19:45:41.580Z,5.18
2022-10-17T19:47:44.436Z,5.40
2022-10-17T19:49:50.187Z,5.20
2022-10-17T19:51:53.185Z,6.90
2022-10-17T19:53:57.338Z,6.55
2022-10-17T19:56:00.791Z,6.13
2022-10-17T19:58:03.681Z,6.45
2022-10-17T20:00:07.829Z,6.53
2022-10-17T20:02:16.728Z,6.80
2022-10-17T20:04:19.586Z,6.47
2022-10-17T20:06:23.235Z,7.18
2022-10-17T20:10:34.715Z,6.78
2022-10-17T20:12:37.639Z,5.90
2022-10-17T20:14:41.535Z,5.90
2022-10-17T20:16:49.919Z,5.63
2022-10-17T20:18:56.394Z,4.80
2022-10-17T20:21:04.004Z,5.43
2022-10-17T20:23:06.874Z,4.00
2022-10-17T20:25:10.179Z,5.15
2022-10-17T20:27:13.027Z,4.05
2022-10-17T20:29:17.467Z,4.10
2022-10-17T20:31:21.111Z,3.85
2022-10-17T20:33:25.485Z,3.00
2022-10-17T20:35:31.639Z,3.72
2022-10-17T20:37:39.903Z,4.30
2022-10-17T20:39:45.547Z,4.10
2022-10-17T20:41:48.515Z,4.18
2022-10-17T20:43:52.174Z,4.00
2022-10-17T20:46:03.520Z,4.95
2022-10-17T20:48:15.129Z,4.40
2022-10-17T20:50:18.310Z,4.78
2022-10-17T20:52:22.611Z,4.03
2022-10-17T20:54:25.816Z,5.55
2022-10-17T20:56:30.468Z,4.35
2022-10-17T20:58:33.432Z,3.85
2022-10-17T21:00:39.160Z,4.50
2022-10-17T21:02:42.088Z,4.20
2022-10-17T21:04:46.768Z,4.20
2022-10-17T21:06:51.847Z,3.58
2022-10-17T21:08:56.903Z,4.18
2022-10-17T21:11:08.623Z,4.00
2022-10-17T21:13:11.767Z,4.30
2022-10-17T21:15:14.767Z,3.85
2022-10-17T21:17:17.967Z,4.53
2022-10-17T21:19:21.942Z,3.83
2022-10-17T21:21:26.734Z,4.70
2022-10-17T21:23:29.718Z,4.32
2022-10-17T21:25:34.450Z,5.13
2022-10-17T21:27:38.198Z,5.70
2022-10-17T21:29:41.132Z,5.57
2022-10-17T21:31:45.350Z,5.07
2022-10-17T21:33:49.918Z,5.22
2022-10-17T21:35:57.188Z,5.38
2022-10-17T21:38:03.003Z,5.13
2022-10-17T21:40:06.825Z,4.90
2022-10-17T21:42:11.139Z,5.80
2022-10-17T21:44:15.903Z,5.68
2022-10-17T21:46:19.983Z,5.22
2022-10-17T21:48:23.432Z,4.95
2022-10-17T21:50:26.414Z,5.50
2022-10-17T21:52:29.677Z,5.55
2022-10-17T21:54:34.575Z,5.95
2022-10-17T21:56:37.802Z,6.03
2022-10-17T21:58:42.435Z,5.55
2022-10-17T22:00:45.385Z,5.65
2022-10-17T22:02:48.209Z,5.75
2022-10-17T22:04:51.661Z,5.75
2022-10-17T22:06:54.550Z,6.28
2022-10-17T22:08:58.124Z,5.97
2022-10-17T22:11:06.029Z,6.47
2022-10-17T22:13:08.913Z,6.03
2022-10-17T22:17:21.044Z,6.60
2022-10-17T22:19:25.562Z,7.05
2022-10-17T22:21:28.948Z,6.05
2022-10-17T22:23:31.866Z,6.10
2022-10-17T22:25:34.760Z,6.20
2022-10-17T22:27:37.637Z,6.20
2022-10-17T22:29:42.670Z,6.60
2022-10-17T22:31:47.148Z,6.60
2022-10-17T22:33:50.469Z,5.40
2022-10-17T22:35:53.432Z,5.45
2022-10-17T22:37:56.297Z,5.65
2022-10-17T22:39:59.169Z,5.68
2022-10-17T22:42:02.068Z,5.88
2022-10-17T22:44:05.448Z,5.32
2022-10-17T22:46:08.753Z,4.13
2022-10-17T22:48:12.991Z,4.13
2022-10-17T22:50:16.657Z,4.45
2022-10-17T22:52:21.578Z,3.63
2022-10-17T22:54:24.646Z,3.42
2022-10-17T22:56:27.497Z,4.10
2022-10-17T22:58:31.761Z,3.08
2022-10-17T23:00:34.702Z,3.60
2022-10-17T23:02:37.687Z,4.35
2022-10-17T23:04:42.408Z,3.55
2022-10-17T23:06:45.295Z,3.10
2022-10-17T23:08:48.870Z,2.58
2022-10-17T23:10:55.306Z,3.08
2022-10-17T23:12:58.165Z,2.03
2022-10-17T23:15:01.367Z,2.08
2022-10-17T23:17:04.936Z,2.70
2022-10-17T23:19:08.075Z,2.40
2022-10-17T23:21:13.100Z,2.10
2022-10-17T23:23:16.726Z,2.10
2022-10-17T23:25:19.791Z,2.42
2022-10-17T23:27:22.714Z,2.53
2022-10-17T23:29:26.378Z,2.53
2022-10-17T23:31:29.317Z,2.42
2022-10-17T23:33:32.586Z,2.53
2022-10-17T23:35:35.657Z,3.28
2022-10-17T23:37:39.938Z,2.65
2022-10-17T23:39:42.831Z,2.88
2022-10-17T23:41:46.925Z,3.45
2022-10-17T23:43:49.796Z,3.70
2022-10-17T23:45:53.401Z,3.10
2022-10-17T23:47:56.352Z,4.13
2022-10-17T23:49:59.308Z,5.03
2022-10-17T23:52:02.164Z,3.38
2022-10-17T23:54:06.418Z,3.97
2022-10-17T23:56:10.128Z,3.35
2022-10-17T23:58:14.262Z,2.97
